Saldanha, South Africa
Current Conditions -  °F | °C
As of 3:00 PM on Saturday 25 Oct 2014 (Local Time) from FACT Reporting Station
Few Clouds Few Clouds  
Wind Chill: 81°   Ceiling: Unl
Heat Index: 81°   Visibility: 6mi
Dew Point: 59°   Wind: 25mph
Humidity: 48%   Direction: 120°ESE
Pressure: 29.97"   Gusts: NA
Location:  33.01°S, 17.93°E
Report Text: FACT 251300Z 12022KT 9999 FEW030 27/15 Q1015 NOSIG
Loading
Personal Weather Stations






























Interactive Weather Map
Tropical Storm Tracking
New forecast layout! Learn more

10-Day Weather Forecast

Advertisements
Track Severe Weather on mobile